Chi-lung, Taiwan
Current Conditions -  °F | °C
As of 3:00 AM on Wednesday 22 Oct 2014 (Local Time) from RCSS Reporting Station
Few Clouds Few Clouds  
Wind Chill: 75°   Ceiling: Unl
Heat Index: 75°   Visibility: 6mi
Dew Point: 68°   Wind: 5mph
Humidity: 78%   Direction: 90°E
Pressure: 29.94"   Gusts: NA
Location:  25.13°N, 121.73°E
Report Text: RCSS 211900Z 09004KT 9999 FEW030 24/20 Q1014 NOSIG RMK A2996
Loading
Personal Weather Stations






























Interactive Weather Map
Tropical Storm Tracking
New forecast layout! Learn more

10-Day Weather Forecast

Advertisements
Track Severe Weather on mobile